Latest Weather Observations for Tasman Island

IDT60801

Issued at 7:02 am EDT Wednesday 18 October 2017 (issued every 30 minutes, with the page automatically refreshed every 10 minutes)

About weather observations | Map of weather stations | Latest weather observations for TAS | Other Formats
Station Details ID: 094155 Name: TASMAN ISLAND Lat: -43.24 Lon: 148.00 Height: 240.0 m
Data from the previous 72 hours. | See also: Recent months at Tasman Island
Date/Time
EDT
Temp
°C
App
Temp
°C
Dew
Point
°C
Rel
Hum
%
Delta-T
°C
Wind Press
QNH
hPa
Press
MSL
hPa
Rain since
9am
mm
Dir  Spd
km/h
Gust
km/h
Spd
kts
Gust
kts
18/07:00am 19.3 13.4 3.9 36 7.4 NW 24 35 13 19 1020.8 1021.0 0.0
18/06:30am 18.6 12.8 4.4 39 6.8 NNW 24 39 13 21 1020.8 1021.0 0.0
18/06:00am 18.8 12.5 3.8 37 7.1 NW 26 46 14 25 1020.5 1020.7 0.0
18/05:33am 20.0 11.4 2.4 31 8.3 NW 37 57 20 31 1020.2 1020.4 0.0
18/05:30am 19.7 11.2 3.0 33 7.9 NW 37 54 20 29 1020.2 1020.4 0.0
18/05:00am 18.3 11.6 5.5 43 6.3 NNW 30 48 16 26 1020.1 1020.3 0.0
18/04:57am 18.0 11.7 5.6 44 6.1 NNW 28 48 15 26 1020.0 1020.2 0.0
18/04:30am 17.8 12.0 6.3 47 5.7 NNW 26 37 14 20 1019.9 1020.1 0.0
18/04:00am 17.8 12.1 6.7 48 5.6 N 26 35 14 19 1020.0 1020.2 0.0
18/03:30am 17.3 12.9 7.6 53 4.9 N 20 32 11 17 1019.8 1020.0 0.0
18/03:00am 16.4 12.0 9.1 62 3.8 N 22 32 12 17 1019.8 1020.0 0.0
18/02:30am 17.5 13.0 8.4 55 4.7 N 22 32 12 17 1020.0 1020.2 0.0
18/02:00am 18.2 15.4 8.7 54 5.0 NNW 13 19 7 10 1020.6 1020.8 0.0
18/01:30am 18.7 13.1 8.7 52 5.3 N 28 37 15 20 1020.5 1020.7 0.0
18/01:00am 16.7 11.8 9.9 64 3.6 N 26 35 14 19 1020.6 1020.8 0.0
18/12:30am 19.4 13.8 8.7 50 5.6 N 28 35 15 19 1020.9 1021.1 0.0
18/12:00am 17.4 12.1 9.8 61 4.0 NNE 28 37 15 20 1021.1 1021.3 0.0
 
Date/Time
EDT
Temp
°C
App
Temp
°C
Dew
Point
°C
Rel
Hum
%
Delta-T
°C
Wind Press
QNH
hPa
Press
MSL
hPa
Rain since
9am
mm
Dir  Spd
km/h
Gust
km/h
Spd
kts
Gust
kts
17/11:30pm 18.5 12.7 9.3 55 4.9 N 30 39 16 21 1021.7 1021.9 0.0
17/11:00pm 17.1 11.8 10.0 63 3.8 NNE 28 39 15 21 1022.0 1022.2 0.0
17/10:30pm 17.4 12.8 9.8 61 4.0 NNE 24 32 13 17 1022.3 1022.5 0.0
17/10:00pm 18.4 14.1 9.2 55 4.9 NNE 22 32 12 17 1022.6 1022.8 0.0
17/09:30pm 20.3 14.1 8.0 45 6.4 NNE 30 39 16 21 1022.8 1023.1 0.0
17/09:00pm 19.8 14.0 7.9 46 6.2 NNE 28 37 15 20 1022.6 1022.8 0.0
17/08:30pm 20.2 13.7 6.5 41 7.0 NNE 30 39 16 21 1022.4 1022.6 0.0
17/08:00pm 19.3 13.5 6.4 43 6.5 NNE 26 35 14 19 1022.2 1022.4 0.0
17/07:30pm 19.3 12.8 6.4 43 6.5 NNE 30 39 16 21 1021.9 1022.1 0.0
17/07:00pm 19.1 13.0 6.6 44 6.3 NNE 28 37 15 20 1021.8 1022.0 0.0
17/06:30pm 18.7 13.6 7.5 48 5.8 NNE 24 32 13 17 1021.8 1022.0 0.0
17/06:00pm 18.6 14.5 7.7 49 5.6 NNE 19 24 10 13 1021.9 1022.1 0.0
17/05:30pm 18.7 14.5 8.1 50 5.5 NNE 20 26 11 14 1021.8 1022.0 0.0
17/05:00pm 18.8 14.9 8.5 51 5.4 NNE 19 24 10 13 1022.0 1022.2 0.0
17/04:30pm 19.5 16.0 8.8 50 5.7 NE 17 20 9 11 1022.0 1022.2 0.0
17/04:00pm 21.0 18.5 8.3 44 6.7 NE 11 15 6 8 1021.9 1022.1 0.0
17/03:30pm 22.4 20.2 7.8 39 7.7 NE 9 13 5 7 1022.0 1022.2 0.0
17/03:00pm 21.8 19.1 7.2 39 7.6 NE 11 15 6 8 1022.0 1022.2 0.0
17/02:30pm 22.6 20.1 8.3 40 7.6 NNE 11 17 6 9 1022.2 1022.4 0.0
17/02:00pm 22.4 19.5 8.1 40 7.6 NNE 13 15 7 8 1022.3 1022.5 0.0
17/01:30pm 23.3 21.5 7.0 35 8.5 NW 6 11 3 6 1022.3 1022.5 0.0
17/01:00pm 22.1 20.3 7.9 40 7.5 NW 7 13 4 7 1022.5 1022.7 0.0
17/12:30pm 22.1 20.5 8.6 42 7.2 NW 7 13 4 7 1022.7 1022.9 0.0
17/12:00pm 22.8 21.4 8.9 41 7.5 NW 6 9 3 5 1022.7 1022.9 0.0
17/11:30am 22.0 19.7 7.4 39 7.6 WNW 9 13 5 7 1022.9 1023.2 0.0
17/11:00am 21.1 19.9 9.4 47 6.3 NW 6 13 3 7 1023.3 1023.5 0.0
17/10:30am 19.4 17.3 8.4 49 5.8 N 9 13 5 7 1023.5 1023.7 0.0
17/10:00am 18.4 16.2 7.8 50 5.4 N 9 13 5 7 1023.2 1023.4 0.0
17/09:30am 18.3 16.4 7.7 50 5.5 N 7 13 4 7 1023.2 1023.4 0.0
17/09:00am 17.4 15.3 6.6 49 5.4 NW 7 9 4 5 1023.0 1023.3 0.0
17/08:30am 16.9 14.4 6.7 51 5.1 WNW 9 13 5 7 1022.8 1023.1 0.0
17/08:00am 17.0 14.4 6.2 49 5.3 NNW 9 15 5 8 1022.7 1022.9 0.0
17/07:30am 16.1 14.5 6.5 53 4.8 WNW 4 13 2 7 1022.5 1022.7 0.0
17/07:00am 14.7 13.1 6.3 57 4.1 NNW 4 9 2 5 1022.0 1022.2 0.0
17/06:30am 14.2 11.5 5.8 57 4.0 NNW 9 15 5 8 1021.7 1021.9 0.0
17/06:00am 13.9 11.3 6.3 60 3.7 NNW 9 19 5 10 1021.6 1021.8 0.0
17/05:30am 13.4 11.0 7.0 65 3.1 N 9 13 5 7 1021.6 1021.8 0.0
17/05:00am 12.6 10.3 7.3 70 2.6 N 9 13 5 7 1021.5 1021.7 0.0
17/04:30am 13.6 11.6 7.2 65 3.2 NNE 7 9 4 5 1021.6 1021.8 0.0
17/04:00am 14.0 12.5 6.8 62 3.5 NNW 4 9 2 5 1021.7 1021.9 0.0
17/03:30am 14.4 12.4 7.2 62 3.6 NW 7 9 4 5 1021.8 1022.0 0.0
17/03:00am 14.8 13.5 7.6 62 3.6 NW 4 7 2 4 1021.8 1022.0 0.0
17/02:30am 14.7 13.4 7.7 63 3.5 NW 4 6 2 3 1022.0 1022.2 0.0
17/02:00am 14.5 12.2 7.5 63 3.5 NNW 9 13 5 7 1022.4 1022.6 0.0
17/01:30am 15.3 11.3 8.3 63 3.6 N 19 28 10 15 1022.6 1022.8 0.0
17/01:00am 14.8 13.4 12.3 85 1.4 N 11 17 6 9 1023.0 1023.3 0.0
17/12:30am 12.3 9.5 11.5 95 0.4 NE 17 20 9 11 1023.2 1023.4 0.0
17/12:00am 11.3 8.6 10.5 95 0.4 NE 15 20 8 11 1023.7 1023.9 0.0
 
Date/Time
EDT
Temp
°C
App
Temp
°C
Dew
Point
°C
Rel
Hum
%
Delta-T
°C
Wind Press
QNH
hPa
Press
MSL
hPa
Rain since
9am
mm
Dir  Spd
km/h
Gust
km/h
Spd
kts
Gust
kts
16/11:30pm 11.4 8.0 10.6 95 0.4 NE 19 20 10 11 1023.7 1023.9 0.0
16/11:00pm 11.3 8.3 10.5 95 0.4 NE 17 20 9 11 1024.0 1024.2 0.0
16/10:30pm 11.4 9.1 10.3 93 0.6 NE 13 17 7 9 1024.3 1024.5 0.0
16/10:00pm 11.5 9.4 9.9 90 0.8 NE 11 17 6 9 1024.7 1024.9 0.0
16/09:30pm 13.5 11.4 9.7 78 2.0 NE 11 15 6 8 1024.8 1025.0 0.0
16/09:00pm 13.4 11.0 10.0 80 1.8 NNE 13 17 7 9 1024.8 1025.0 0.0
16/08:30pm 13.7 10.7 9.4 75 2.2 NNE 15 22 8 12 1024.6 1024.8 0.0
16/08:00pm 14.2 10.8 9.2 72 2.6 NE 17 24 9 13 1024.3 1024.5 0.0
16/07:30pm 13.9 9.9 8.9 72 2.6 NE 20 28 11 15 1024.0 1024.2 0.0
16/07:00pm 13.3 9.7 9.9 80 1.8 NE 19 24 10 13 1023.9 1024.1 0.0
16/06:30pm 13.6 10.6 9.3 75 2.2 NE 15 20 8 11 1024.1 1024.3 0.0
16/06:00pm 14.8 11.8 9.2 69 2.9 NE 15 20 8 11 1023.9 1024.1 0.0
16/05:30pm 15.7 12.3 9.1 65 3.4 NE 17 24 9 13 1023.7 1023.9 0.0
16/05:00pm 16.1 13.1 9.1 63 3.6 NE 15 20 8 11 1023.7 1023.9 0.0
16/04:30pm 17.8 14.8 9.2 57 4.5 NE 15 20 8 11 1023.7 1023.9 0.0
16/04:00pm 17.9 14.8 8.7 55 4.8 NE 15 20 8 11 1023.7 1023.9 0.0
16/03:30pm 18.9 16.6 7.4 47 5.9 ENE 9 13 5 7 1023.8 1024.0 0.0
16/03:00pm 19.1 17.8 9.9 55 4.9 E 7 13 4 7 1024.1 1024.3 0.0
16/02:30pm 18.5 17.1 9.6 56 4.8 ESE 7 11 4 6 1024.3 1024.5 0.0
16/02:00pm 19.2 18.3 10.7 58 4.6 N 6 9 3 5 1024.4 1024.6 0.0
16/01:30pm 20.3 18.8 8.3 46 6.3 NW 6 9 3 5 1024.5 1024.7 0.0
16/01:00pm 19.1 19.0 12.1 64 3.9 ENE 4 9 2 5 1024.5 1024.7 0.0
16/12:30pm 19.4 19.3 12.2 63 4.1 WNW 4 7 2 4 1024.6 1024.8 0.0
16/12:00pm 16.2 15.3 10.5 69 3.0 NNW 6 9 3 5 1024.7 1024.9 0.0
16/11:30am 15.4 14.2 10.4 72 2.7 NNE 7 13 4 7 1024.8 1025.0 0.0
16/11:00am 15.2 14.2 11.0 76 2.2 N 7 13 4 7 1025.2 1025.4 0.0
16/10:30am 14.4 13.4 11.0 80 1.8 N 7 15 4 8 1025.4 1025.6 0.0
16/10:00am 12.9 10.2 10.3 84 1.4 NNE 15 20 8 11 1025.3 1025.5 0.0
16/09:30am 13.8 11.7 11.1 84 1.4 N 13 19 7 10 1025.1 1025.3 0.0
16/09:00am 12.6 9.6 10.7 88 1.0 NNE 17 28 9 15 1025.1 1025.3 0.2
16/08:30am 11.7 7.7 10.6 93 0.6 NNE 22 37 12 20 1025.1 1025.3 0.2
16/08:00am 10.9 6.4 10.0 94 0.5 N 24 35 13 19 1025.1 1025.3 0.2
16/07:30am 10.7 6.5 9.9 95 0.4 NNE 22 33 12 18 1024.9 1025.1 0.2
16/07:00am 10.2 5.2 9.4 95 0.4 NNE 26 35 14 19 1024.8 1025.0 0.2
16/06:30am 10.0 5.3 9.2 95 0.4 NNE 24 32 13 17 1024.7 1024.9 0.0
16/06:00am 9.9 5.2 9.1 95 0.4 N 24 35 13 19 1024.5 1024.7 0.0
16/05:30am 9.9 4.8 9.1 95 0.4 N 26 37 14 20 1024.4 1024.6 0.0
16/05:00am 9.9 4.8 9.3 96 0.3 N 26 37 14 20 1024.3 1024.5 0.0
16/04:30am 10.1 4.7 9.5 96 0.3 N 28 39 15 21 1024.4 1024.6 0.0
16/04:00am 9.9 4.9 9.4 97 0.3 NNE 26 37 14 20 1024.4 1024.6 0.0
16/03:30am 10.1 5.5 9.6 97 0.3 NNE 24 32 13 17 1024.6 1024.8 0.0
16/03:00am 10.1 7.2 9.6 97 0.3 NE 15 26 8 14 1025.2 1025.4 0.0
16/02:30am 9.7 7.8 9.2 97 0.3 NE 9 15 5 8 1025.5 1025.7 0.0
16/02:00am 9.7 8.4 9.1 96 0.3 ENE 6 13 3 7 1025.7 1025.9 0.0
16/01:30am 9.6 8.1 9.0 96 0.3 E 7 15 4 8 1025.9 1026.1 0.0
16/01:00am 9.6 8.2 9.0 96 0.3 E 6 9 3 5 1026.0 1026.2 0.0
16/12:30am 9.6 8.2 9.0 96 0.3 E 6 9 3 5 1026.1 1026.3 0.0
16/12:00am 9.6 8.1 9.0 96 0.3 ESE 7 11 4 6 1026.1 1026.3 0.0
 
Date/Time
EDT
Temp
°C
App
Temp
°C
Dew
Point
°C
Rel
Hum
%
Delta-T
°C
Wind Press
QNH
hPa
Press
MSL
hPa
Rain since
9am
mm
Dir  Spd
km/h
Gust
km/h
Spd
kts
Gust
kts
15/11:30pm 9.6 7.7 9.0 96 0.3 S 9 15 5 8 1026.1 1026.3 0.0
15/11:00pm 9.7 9.1 8.9 95 0.4 NNE 2 4 1 2 1026.0 1026.2 0.0
15/10:30pm 9.7 8.3 8.9 95 0.4 SSW 6 9 3 5 1025.9 1026.1 0.0
15/10:00pm 9.7 7.8 8.9 95 0.4 S 9 13 5 7 1025.9 1026.1 0.0
15/09:30pm 9.7 7.8 8.9 95 0.4 SSW 9 13 5 7 1025.6 1025.8 0.0
15/09:00pm 9.7 7.0 8.8 94 0.4 SSW 13 19 7 10 1025.4 1025.6 0.0
15/08:30pm 9.7 7.3 8.8 94 0.4 SW 11 15 6 8 1025.1 1025.3 0.0
15/08:00pm 9.7 6.5 8.6 93 0.5 SW 15 19 8 10 1024.6 1024.8 0.0
15/07:30pm 9.7 6.5 8.3 91 0.7 SW 15 19 8 10 1024.1 1024.3 0.0
15/07:00pm 10.3 7.5 8.7 90 0.8 WSW 13 20 7 11 1023.9 1024.1 0.0
15/06:30pm 10.5 7.8 8.8 89 0.8 SW 13 26 7 14 1023.7 1023.9 0.0
15/06:00pm 10.7 6.2 8.6 87 1.0 SW 22 32 12 17 1023.2 1023.4 0.0
15/05:30pm 10.9 6.4 8.7 86 1.1 SW 22 33 12 18 1022.9 1023.2 0.0
15/05:00pm 11.8 7.4 9.0 83 1.4 SW 22 33 12 18 1022.7 1022.9 0.0
15/04:30pm 12.1 8.2 9.3 83 1.4 SW 20 33 11 18 1022.6 1022.8 0.0
15/04:00pm 12.0 6.4 8.8 81 1.6 SW 28 39 15 21 1022.4 1022.6 0.0
15/03:30pm 13.0 9.1 9.4 79 1.9 SSW 20 35 11 19 1022.2 1022.4 0.0
15/03:00pm 12.8 9.4 9.3 79 1.8 SSW 17 32 9 17 1022.1 1022.3 0.0
15/02:30pm 13.1 9.8 9.5 79 1.9 SSW 17 30 9 16 1022.0 1022.2 0.0
15/02:00pm 13.1 9.5 9.9 81 1.7 SSW 19 32 10 17 1022.1 1022.3 0.0
15/01:30pm 12.9 9.6 9.4 79 1.8 SSW 17 28 9 15 1021.9 1022.1 0.0
15/01:00pm 13.8 10.6 10.0 78 2.0 SSW 17 24 9 13 1021.8 1022.0 0.0
15/12:30pm 13.3 10.7 9.2 76 2.1 S 13 22 7 12 1021.6 1021.8 0.0
15/12:00pm 14.1 12.1 10.1 77 2.1 SE 11 15 6 8 1021.4 1021.6 0.0
15/11:30am 13.4 11.1 8.9 74 2.3 E 11 15 6 8 1021.2 1021.4 0.0
15/11:00am 15.0 13.9 8.5 65 3.3 E 4 9 2 5 1021.0 1021.2 0.0
15/10:30am 15.9 13.1 6.9 55 4.5 WNW 11 15 6 8 1021.0 1021.2 0.0
15/10:00am 15.8 12.9 6.3 53 4.7 WNW 11 17 6 9 1020.7 1020.9 0.0
15/09:30am 15.6 13.1 6.6 55 4.4 WNW 9 17 5 9 1020.4 1020.6 0.0
15/09:00am 14.8 11.8 5.9 55 4.3 WNW 11 19 6 10 1019.9 1020.1 0.0
15/08:30am 14.1 11.7 5.2 55 4.2 WNW 7 17 4 9 1019.7 1019.9 0.0
15/08:00am 13.7 10.1 4.8 55 4.2 WNW 13 20 7 11 1019.4 1019.6 0.0
15/07:30am 13.2 9.5 4.6 56 4.0 WNW 13 22 7 12 1018.9 1019.0 0.0

Other Formats:

Comma delimited format used in spreadsheet applications
http://www.bom.gov.au/fwo/IDT60801/IDT60801.95986.axf

JavaScript Object Notation format (JSON) in row-major order
http://www.bom.gov.au/fwo/IDT60801/IDT60801.95986.json